KGSH/GSH METAR and TAF weather

Enter ICAO airport designator
Station Type Date Time Source
KGSH METAR 2022/06/25 22:53 UTC NOAA

KGSH 252253Z AUTO 19003KT 10SM -RA FEW075 BKN110 24/16 A2999 RMK AO2 RAB36 SLP150 P0000 T02440156


Station Type Date Time Source
KGSH Decoded METAR 2022/06/25 22:53 UTC NOAA

GOSHEN MUNICIPAL AIRPORT, IN, United States (KGSH) 41-32N 85-47W 252M
Jun 25, 2022 - 06:53 PM EDT / 2022.06.25 2253 UTC
Wind: from the S (190 degrees) at 3 MPH (3 KT):0
Visibility: 10 mile(s):0
Sky conditions: mostly cloudy
Weather: light rain
Precipitation last hour: A trace
Temperature: 75.9 F (24.4 C)
Dew Point: 60.1 F (15.6 C)
Relative Humidity: 57%
Pressure (altimeter): 29.99 in. Hg (1015 hPa)
ob: KGSH 252253Z AUTO 19003KT 10SM -RA FEW075 BKN110 24/16 A2999 RMK AO2 RAB36 SLP150 P0000 T02440156
cycle: 23

Station Type Date Time Source
KGSH TAF UTC NOAA

Error!

Example: see airport list